createdAt,value
2023-08-29T00:00:38.157Z,52.99
2023-08-29T00:03:05.647Z,53.15
2023-08-29T00:05:33.056Z,53.19
2023-08-29T00:08:00.461Z,54.85
2023-08-29T00:10:27.910Z,55.60
2023-08-29T00:12:55.268Z,55.45
2023-08-29T00:15:22.725Z,55.70
2023-08-29T00:17:50.162Z,55.80
2023-08-29T00:20:17.654Z,56.03
2023-08-29T00:22:45.094Z,56.23
2023-08-29T00:25:12.507Z,56.25
2023-08-29T00:27:39.904Z,56.42
2023-08-29T00:30:09.098Z,56.65
2023-08-29T00:32:36.438Z,56.51
2023-08-29T00:35:04.956Z,56.81
2023-08-29T00:37:33.488Z,56.64
2023-08-29T00:40:02.309Z,56.93
2023-08-29T00:42:29.723Z,57.21
2023-08-29T00:44:57.860Z,56.76
2023-08-29T00:47:26.267Z,56.94
2023-08-29T00:49:53.705Z,56.83
2023-08-29T00:52:21.035Z,56.50
2023-08-29T00:54:48.799Z,57.04
2023-08-29T00:57:16.088Z,56.86
2023-08-29T00:59:43.404Z,57.26
2023-08-29T01:02:11.311Z,57.29
2023-08-29T01:04:38.900Z,56.86
2023-08-29T01:07:06.569Z,56.98
2023-08-29T01:09:34.587Z,56.78
2023-08-29T01:12:08.363Z,56.88
2023-08-29T01:14:59.404Z,57.75
2023-08-29T01:17:30.375Z,56.64
2023-08-29T01:19:58.118Z,56.65
2023-08-29T01:22:45.077Z,56.51
2023-08-29T01:25:49.749Z,56.26
2023-08-29T01:28:17.207Z,55.75
2023-08-29T01:30:44.549Z,54.84
2023-08-29T01:33:12.001Z,54.53
2023-08-29T01:35:46.707Z,54.98
2023-08-29T01:38:14.956Z,54.55
2023-08-29T01:40:42.263Z,54.58
2023-08-29T01:43:09.636Z,55.00
2023-08-29T01:45:37.023Z,54.65
2023-08-29T01:48:05.794Z,54.71
2023-08-29T01:50:34.283Z,55.29
2023-08-29T01:53:01.710Z,55.53
2023-08-29T01:55:29.078Z,55.92
2023-08-29T01:57:56.604Z,56.25
2023-08-29T02:00:23.994Z,56.29
2023-08-29T02:02:51.443Z,56.69
2023-08-29T02:05:18.849Z,56.49
2023-08-29T02:07:46.192Z,56.45
2023-08-29T02:10:14.150Z,56.36
2023-08-29T02:12:41.579Z,55.78
2023-08-29T02:15:10.027Z,55.85
2023-08-29T02:17:41.369Z,55.74
2023-08-29T02:20:09.684Z,55.98
2023-08-29T02:22:37.578Z,56.05
2023-08-29T02:25:06.335Z,55.91
2023-08-29T02:27:33.889Z,55.90
2023-08-29T02:30:05.290Z,56.02
2023-08-29T02:32:35.745Z,55.95
2023-08-29T02:35:05.329Z,55.93
2023-08-29T02:37:34.344Z,57.03
2023-08-29T02:40:02.193Z,56.75
2023-08-29T02:42:29.647Z,57.03
2023-08-29T02:44:57.008Z,56.64
2023-08-29T02:47:24.369Z,56.57
2023-08-29T02:49:51.784Z,56.57
2023-08-29T02:52:19.172Z,56.56
2023-08-29T02:54:46.554Z,56.47
2023-08-29T02:57:13.867Z,56.34
2023-08-29T02:59:41.252Z,56.60
2023-08-29T03:02:08.626Z,56.43
2023-08-29T03:04:35.960Z,56.26
2023-08-29T03:07:05.551Z,56.33
2023-08-29T03:09:34.942Z,56.46
2023-08-29T03:12:03.873Z,57.02
2023-08-29T03:14:31.864Z,57.65
2023-08-29T03:16:59.609Z,57.90
2023-08-29T03:19:27.035Z,57.95
2023-08-29T03:21:54.388Z,58.07
2023-08-29T03:24:21.790Z,57.82
2023-08-29T03:26:49.117Z,58.35
2023-08-29T03:29:16.527Z,58.27
2023-08-29T03:31:43.902Z,58.36
2023-08-29T03:34:11.204Z,58.43
2023-08-29T03:36:40.070Z,58.30
2023-08-29T03:39:07.477Z,58.08
2023-08-29T03:41:35.606Z,57.59
2023-08-29T03:44:04.608Z,57.59
2023-08-29T03:46:32.237Z,57.37
2023-08-29T03:49:00.637Z,56.33
2023-08-29T03:51:28.006Z,55.98
2023-08-29T03:53:55.393Z,55.27
2023-08-29T03:56:22.872Z,54.79
2023-08-29T03:58:50.466Z,54.09
2023-08-29T04:01:20.909Z,53.17
2023-08-29T04:03:51.606Z,52.73
2023-08-29T04:06:21.081Z,52.28
2023-08-29T04:08:48.553Z,51.59
2023-08-29T04:11:15.966Z,51.40
2023-08-29T04:13:43.292Z,52.00
2023-08-29T04:16:10.835Z,51.85
2023-08-29T04:18:38.201Z,51.52
2023-08-29T04:21:05.544Z,50.32
2023-08-29T04:23:33.050Z,50.94
2023-08-29T04:26:01.204Z,50.49
2023-08-29T04:28:28.883Z,49.51
2023-08-29T04:30:56.238Z,48.08
2023-08-29T04:33:25.581Z,46.40
2023-08-29T04:35:55.129Z,45.36
2023-08-29T04:38:22.533Z,45.09
2023-08-29T04:40:49.940Z,44.74
2023-08-29T04:43:17.334Z,44.90
2023-08-29T04:45:46.077Z,43.56
2023-08-29T04:48:14.730Z,41.79
2023-08-29T04:50:42.247Z,41.53
2023-08-29T04:53:09.571Z,40.49
2023-08-29T04:55:36.943Z,39.98
2023-08-29T04:58:04.992Z,39.59
2023-08-29T05:00:32.846Z,38.93
2023-08-29T05:03:00.399Z,38.47
2023-08-29T05:05:28.122Z,38.07
2023-08-29T05:07:55.442Z,37.35
2023-08-29T05:10:26.309Z,37.03
2023-08-29T05:12:54.511Z,36.20
2023-08-29T05:15:21.840Z,35.62
2023-08-29T05:17:49.221Z,35.53
2023-08-29T05:20:17.043Z,35.34
2023-08-29T05:22:45.984Z,35.04
2023-08-29T05:25:13.509Z,34.92
2023-08-29T05:27:40.888Z,34.45
2023-08-29T05:30:09.459Z,33.77
2023-08-29T05:32:38.289Z,33.12
2023-08-29T05:35:06.311Z,33.10
2023-08-29T05:37:33.890Z,32.51
2023-08-29T05:40:01.259Z,32.50
2023-08-29T05:42:28.586Z,32.47
2023-08-29T05:44:55.972Z,32.44
2023-08-29T05:47:23.346Z,32.75
2023-08-29T05:49:50.714Z,32.62
2023-08-29T05:52:18.097Z,32.34
2023-08-29T05:54:45.545Z,32.27
2023-08-29T05:57:12.871Z,32.07
2023-08-29T05:59:40.257Z,31.40
2023-08-29T06:02:07.638Z,31.57
2023-08-29T06:04:35.063Z,31.15
2023-08-29T06:07:02.387Z,30.58
2023-08-29T06:09:30.265Z,30.63
2023-08-29T06:11:57.662Z,30.56
2023-08-29T06:14:25.016Z,30.82
2023-08-29T06:16:52.376Z,30.87
2023-08-29T06:19:20.205Z,30.90
2023-08-29T06:21:47.563Z,30.73
2023-08-29T06:24:16.656Z,30.18
2023-08-29T06:26:44.057Z,30.16
2023-08-29T06:29:12.289Z,30.03
2023-08-29T06:31:41.823Z,30.56
2023-08-29T06:34:09.242Z,29.97
2023-08-29T06:36:36.690Z,29.80
2023-08-29T06:39:04.542Z,29.74
2023-08-29T06:41:32.313Z,29.85
2023-08-29T06:43:59.687Z,29.33
2023-08-29T06:46:27.033Z,28.98
2023-08-29T06:48:54.408Z,28.80
2023-08-29T06:51:21.775Z,28.63
2023-08-29T06:53:49.089Z,28.59
2023-08-29T06:56:16.461Z,28.57
2023-08-29T06:58:43.778Z,28.27
2023-08-29T07:01:11.192Z,27.70
2023-08-29T07:03:38.570Z,27.26
2023-08-29T07:06:05.937Z,27.20
2023-08-29T07:08:33.969Z,27.12
2023-08-29T07:11:01.280Z,27.13
2023-08-29T07:13:28.612Z,26.79
2023-08-29T07:15:55.981Z,26.59
2023-08-29T07:18:24.222Z,26.60
2023-08-29T07:20:51.823Z,26.56
2023-08-29T07:23:19.161Z,26.63
2023-08-29T07:25:47.162Z,26.65
2023-08-29T07:28:14.812Z,26.37
2023-08-29T07:30:54.655Z,26.22
2023-08-29T07:33:22.179Z,26.01
2023-08-29T07:35:53.463Z,25.78
2023-08-29T07:38:20.859Z,25.20
2023-08-29T07:40:48.475Z,24.80
2023-08-29T07:43:16.227Z,24.63
2023-08-29T07:45:43.861Z,24.32
2023-08-29T07:48:11.833Z,24.60
2023-08-29T07:50:39.772Z,24.46
2023-08-29T07:53:07.221Z,24.49
2023-08-29T07:55:34.623Z,24.88
2023-08-29T07:58:03.156Z,24.50
2023-08-29T08:00:30.660Z,24.19
2023-08-29T08:02:58.044Z,24.06
2023-08-29T08:05:26.238Z,24.08
2023-08-29T08:07:53.846Z,23.90
2023-08-29T08:10:21.377Z,23.77
2023-08-29T08:12:49.437Z,23.11
2023-08-29T08:15:17.736Z,22.58
2023-08-29T08:17:46.628Z,22.57
2023-08-29T08:20:14.239Z,22.63
2023-08-29T08:22:42.254Z,22.67
2023-08-29T08:25:11.559Z,22.78
2023-08-29T08:27:41.805Z,22.57
2023-08-29T08:30:10.101Z,22.32
2023-08-29T08:32:37.855Z,21.46
2023-08-29T08:36:34.248Z,22.98
2023-08-29T08:39:00.761Z,22.27
2023-08-29T08:41:27.437Z,21.66
2023-08-29T08:43:55.706Z,20.94
2023-08-29T08:46:22.201Z,20.33
2023-08-29T08:48:49.276Z,20.11
2023-08-29T08:51:16.486Z,20.34
2023-08-29T08:53:43.363Z,20.16
2023-08-29T08:56:10.376Z,20.22
2023-08-29T08:58:37.672Z,20.71
2023-08-29T09:01:04.739Z,20.84
2023-08-29T09:03:31.520Z,20.69
2023-08-29T09:05:58.460Z,19.76
2023-08-29T09:08:25.168Z,19.49
2023-08-29T09:10:52.079Z,19.89
2023-08-29T09:13:19.851Z,20.00
2023-08-29T09:15:47.585Z,20.14
2023-08-29T09:18:16.501Z,20.29
2023-08-29T09:20:43.926Z,20.49
2023-08-29T09:23:21.054Z,20.34
2023-08-29T09:25:57.254Z,20.24
2023-08-29T09:28:28.295Z,19.99
2023-08-29T09:30:55.708Z,19.74
2023-08-29T09:33:22.694Z,19.53
2023-08-29T09:35:49.878Z,19.75
2023-08-29T09:38:18.919Z,19.94
2023-08-29T09:40:49.586Z,19.91
2023-08-29T09:43:17.627Z,20.42
2023-08-29T09:45:51.489Z,20.82
2023-08-29T09:48:21.073Z,20.84
2023-08-29T09:50:50.149Z,20.81
2023-08-29T09:53:23.225Z,20.65
2023-08-29T09:56:08.691Z,20.90
2023-08-29T09:58:35.469Z,21.16
2023-08-29T10:01:05.363Z,20.72
2023-08-29T10:03:32.312Z,20.60
2023-08-29T10:06:00.678Z,20.52
2023-08-29T10:08:31.896Z,20.69
2023-08-29T10:11:00.156Z,20.72
2023-08-29T10:13:26.746Z,20.60
2023-08-29T10:15:53.491Z,20.55
2023-08-29T10:18:22.293Z,20.63
2023-08-29T10:20:51.656Z,20.65
2023-08-29T10:23:18.231Z,20.74
2023-08-29T10:25:45.250Z,20.32
2023-08-29T10:28:12.775Z,20.20
2023-08-29T10:30:41.411Z,20.18
2023-08-29T10:33:09.305Z,20.64
2023-08-29T10:35:35.823Z,20.23
2023-08-29T10:38:02.539Z,19.81
2023-08-29T10:40:36.200Z,19.35
2023-08-29T10:43:04.066Z,18.80
2023-08-29T10:45:46.532Z,19.24
2023-08-29T10:48:19.848Z,19.75
2023-08-29T10:51:06.083Z,19.64
2023-08-29T10:53:34.142Z,19.58
2023-08-29T10:56:03.293Z,19.86
2023-08-29T10:58:36.179Z,20.30
2023-08-29T11:01:05.787Z,20.61
2023-08-29T11:03:47.285Z,21.03
2023-08-29T11:06:15.284Z,20.59
2023-08-29T11:08:41.867Z,20.33
2023-08-29T11:11:23.571Z,20.17
2023-08-29T11:14:08.492Z,20.06
2023-08-29T11:16:36.133Z,20.13
2023-08-29T11:19:13.722Z,19.54
2023-08-29T11:21:46.800Z,19.18
2023-08-29T11:24:17.092Z,19.42
2023-08-29T11:26:45.028Z,19.87
2023-08-29T11:29:13.885Z,20.26
2023-08-29T11:31:46.717Z,20.70
2023-08-29T11:34:13.718Z,20.91
2023-08-29T11:36:41.576Z,21.10
2023-08-29T11:39:08.901Z,21.21
2023-08-29T11:41:46.986Z,21.18
2023-08-29T11:45:18.498Z,20.92
2023-08-29T11:47:15.608Z,20.98
2023-08-29T11:49:43.095Z,20.85
2023-08-29T11:52:09.959Z,20.81
2023-08-29T11:54:45.441Z,21.16
2023-08-29T11:57:13.020Z,21.29
2023-08-29T11:59:44.113Z,21.27
2023-08-29T12:02:17.729Z,21.18
2023-08-29T12:04:48.158Z,21.62
2023-08-29T12:07:15.949Z,21.79
2023-08-29T12:09:44.078Z,21.54
2023-08-29T12:12:34.182Z,21.43
2023-08-29T12:15:07.176Z,21.29
2023-08-29T12:17:41.840Z,21.53
2023-08-29T12:20:14.557Z,21.34
2023-08-29T12:22:43.674Z,21.44
2023-08-29T12:25:10.481Z,21.64
2023-08-29T12:27:37.310Z,21.12
2023-08-29T12:30:05.016Z,20.86
2023-08-29T12:32:31.909Z,21.38
2023-08-29T12:34:58.757Z,21.74
2023-08-29T12:37:25.527Z,21.54
2023-08-29T12:39:52.927Z,21.46
2023-08-29T12:42:19.780Z,21.10
2023-08-29T12:44:46.390Z,21.06
2023-08-29T12:47:12.929Z,21.22
2023-08-29T12:49:39.462Z,21.90
2023-08-29T12:52:06.141Z,22.67
2023-08-29T12:54:34.241Z,23.85
2023-08-29T12:57:01.326Z,24.38
2023-08-29T12:59:28.167Z,24.27
2023-08-29T13:01:54.741Z,24.23
2023-08-29T13:04:21.529Z,24.23
2023-08-29T13:06:48.323Z,24.51
2023-08-29T13:09:26.902Z,25.09
2023-08-29T13:12:01.873Z,25.09
2023-08-29T13:14:35.648Z,25.13
2023-08-29T13:17:05.054Z,25.23
2023-08-29T13:19:34.851Z,25.46
2023-08-29T13:22:02.746Z,26.46
2023-08-29T13:24:29.560Z,26.84
2023-08-29T13:26:56.438Z,26.88
2023-08-29T13:29:23.402Z,26.79
2023-08-29T13:31:50.814Z,26.12
2023-08-29T13:34:18.028Z,26.34
2023-08-29T13:36:44.707Z,26.35
2023-08-29T13:39:11.245Z,26.60
2023-08-29T13:41:38.499Z,26.40
2023-08-29T13:44:05.374Z,26.47
2023-08-29T13:46:32.569Z,26.24
2023-08-29T13:48:59.061Z,25.89
2023-08-29T13:51:25.859Z,25.87
2023-08-29T13:53:52.439Z,26.09
2023-08-29T13:56:19.006Z,26.06
2023-08-29T13:58:45.977Z,25.72
2023-08-29T14:01:13.330Z,24.82
2023-08-29T14:03:40.188Z,25.15
2023-08-29T14:06:07.281Z,25.29
2023-08-29T14:08:34.167Z,25.67
2023-08-29T14:11:01.698Z,25.70
2023-08-29T14:13:28.757Z,25.59
2023-08-29T14:16:03.147Z,25.84
2023-08-29T14:18:30.829Z,25.93
2023-08-29T14:20:58.138Z,25.85
2023-08-29T14:23:25.091Z,25.69
2023-08-29T14:25:52.043Z,25.67
2023-08-29T14:28:18.653Z,26.10
2023-08-29T14:30:45.764Z,25.97
2023-08-29T14:33:13.695Z,26.10
2023-08-29T14:35:41.026Z,26.23
2023-08-29T14:38:08.001Z,26.52
2023-08-29T14:40:35.102Z,26.25
2023-08-29T14:43:01.596Z,26.46
2023-08-29T14:45:28.546Z,26.58
2023-08-29T14:47:55.398Z,26.43
2023-08-29T14:50:23.286Z,26.31
2023-08-29T14:52:52.411Z,26.09
2023-08-29T14:55:21.770Z,26.53
2023-08-29T14:57:48.508Z,27.12
2023-08-29T15:00:16.077Z,27.02
2023-08-29T15:02:43.983Z,26.42
2023-08-29T15:05:12.123Z,26.22
2023-08-29T15:07:39.561Z,26.27
2023-08-29T15:10:06.936Z,26.42
2023-08-29T15:12:33.589Z,26.34
2023-08-29T15:15:02.561Z,26.72
2023-08-29T15:17:30.191Z,27.14
2023-08-29T15:19:57.279Z,27.03
2023-08-29T15:22:23.783Z,26.97
2023-08-29T15:24:50.372Z,26.87
2023-08-29T15:27:17.426Z,26.82
2023-08-29T15:29:44.411Z,26.81
2023-08-29T15:32:11.041Z,26.80
2023-08-29T15:34:37.760Z,26.89
2023-08-29T15:37:05.147Z,26.92
2023-08-29T15:39:33.107Z,27.36
2023-08-29T15:42:00.185Z,27.49
2023-08-29T15:44:32.258Z,27.68
2023-08-29T15:46:58.795Z,27.95
2023-08-29T15:49:25.411Z,28.09
2023-08-29T15:51:51.876Z,28.31
2023-08-29T15:54:18.508Z,28.70
2023-08-29T15:56:45.171Z,28.73
2023-08-29T15:59:12.582Z,28.75
2023-08-29T16:01:39.128Z,28.99
2023-08-29T16:04:05.570Z,29.00
2023-08-29T16:06:33.323Z,28.97
2023-08-29T16:09:01.084Z,29.08
2023-08-29T16:11:28.845Z,29.13
2023-08-29T16:13:55.415Z,29.15
2023-08-29T16:16:22.059Z,29.33
2023-08-29T16:18:48.751Z,29.41
2023-08-29T16:21:17.912Z,29.73
2023-08-29T16:23:45.753Z,29.85
2023-08-29T16:26:15.702Z,29.95
2023-08-29T16:28:42.894Z,30.08
2023-08-29T16:31:09.658Z,30.34
2023-08-29T16:33:36.287Z,30.37
2023-08-29T16:36:05.958Z,30.70
2023-08-29T16:38:32.957Z,30.79
2023-08-29T16:40:59.457Z,30.85
2023-08-29T16:43:26.685Z,30.99
2023-08-29T16:45:53.127Z,31.04
2023-08-29T16:48:19.814Z,30.90
2023-08-29T16:50:46.931Z,30.94
2023-08-29T16:53:13.585Z,31.01
2023-08-29T16:55:43.036Z,31.33
2023-08-29T16:58:09.775Z,31.47
2023-08-29T17:00:39.771Z,31.68
2023-08-29T17:03:12.004Z,31.80
2023-08-29T17:05:39.585Z,31.96
2023-08-29T17:08:07.269Z,31.92
2023-08-29T17:10:34.295Z,32.19
2023-08-29T17:13:04.397Z,32.36
2023-08-29T17:15:35.623Z,32.41
2023-08-29T17:18:02.416Z,32.51
2023-08-29T17:20:29.053Z,32.98
2023-08-29T17:22:55.627Z,33.33
2023-08-29T17:25:22.399Z,33.37
2023-08-29T17:27:49.379Z,34.45
2023-08-29T17:30:16.306Z,33.93
2023-08-29T17:32:43.559Z,34.02
2023-08-29T17:35:11.345Z,33.87
2023-08-29T17:37:41.722Z,34.25
2023-08-29T17:40:10.670Z,34.24
2023-08-29T17:42:40.457Z,34.51
2023-08-29T17:45:08.823Z,34.73
2023-08-29T17:47:36.718Z,34.72
2023-08-29T17:50:06.226Z,34.94
2023-08-29T17:52:33.155Z,34.57
2023-08-29T17:54:59.770Z,34.60
2023-08-29T17:57:26.633Z,34.74
2023-08-29T17:59:55.103Z,34.90
2023-08-29T18:02:26.644Z,35.23
2023-08-29T18:04:55.043Z,35.34
2023-08-29T18:07:21.836Z,35.71
2023-08-29T18:10:08.502Z,35.83
2023-08-29T18:12:36.522Z,36.16
2023-08-29T18:15:03.730Z,36.36
2023-08-29T18:17:31.421Z,36.27
2023-08-29T18:19:58.330Z,37.00
2023-08-29T18:22:25.440Z,37.38
2023-08-29T18:24:54.949Z,37.03
2023-08-29T18:27:23.683Z,37.32
2023-08-29T18:29:50.389Z,37.17
2023-08-29T18:32:17.016Z,37.36
2023-08-29T18:34:44.164Z,37.84
2023-08-29T18:37:11.301Z,37.83
2023-08-29T18:39:38.160Z,37.81
2023-08-29T18:42:06.044Z,38.14
2023-08-29T18:44:34.671Z,37.86
2023-08-29T18:47:01.619Z,38.13
2023-08-29T18:49:30.371Z,37.96
2023-08-29T18:51:57.102Z,38.27
2023-08-29T18:54:23.720Z,38.28
2023-08-29T18:56:50.652Z,38.53
2023-08-29T18:59:17.300Z,38.87
2023-08-29T19:01:43.848Z,38.92
2023-08-29T19:04:10.500Z,38.82
2023-08-29T19:06:37.201Z,38.37
2023-08-29T19:09:04.195Z,38.19
2023-08-29T19:11:31.028Z,38.53
2023-08-29T19:13:57.739Z,38.78
2023-08-29T19:16:25.487Z,38.65
2023-08-29T19:18:52.562Z,38.86
2023-08-29T19:21:19.070Z,38.70
2023-08-29T19:23:45.766Z,38.32
2023-08-29T19:26:13.091Z,38.30
2023-08-29T19:28:39.903Z,38.50
2023-08-29T19:31:06.443Z,38.78
2023-08-29T19:33:33.192Z,38.57
2023-08-29T19:36:13.371Z,38.50
2023-08-29T19:38:40.916Z,39.82
2023-08-29T19:41:08.410Z,40.37
2023-08-29T19:43:35.227Z,40.56
2023-08-29T19:46:01.795Z,40.80
2023-08-29T19:48:29.307Z,40.69
2023-08-29T19:50:55.872Z,40.78
2023-08-29T19:53:22.570Z,40.90
2023-08-29T19:55:55.707Z,40.92
2023-08-29T19:58:22.386Z,41.03
2023-08-29T20:00:50.397Z,41.16
2023-08-29T20:03:20.268Z,41.53
2023-08-29T20:05:46.840Z,41.85
2023-08-29T20:08:16.323Z,42.26
2023-08-29T20:10:45.636Z,42.41
2023-08-29T20:13:12.417Z,42.11
2023-08-29T20:15:43.847Z,42.34
2023-08-29T20:18:11.475Z,42.93
2023-08-29T20:20:39.155Z,43.04
2023-08-29T20:23:05.804Z,42.92
2023-08-29T20:25:33.297Z,43.45
2023-08-29T20:28:00.000Z,43.52
2023-08-29T20:30:27.041Z,43.84
2023-08-29T20:32:53.858Z,43.76
2023-08-29T20:35:20.550Z,43.49
2023-08-29T20:37:47.378Z,43.25
2023-08-29T20:40:13.955Z,43.27
2023-08-29T20:42:40.525Z,43.52
2023-08-29T20:45:08.218Z,43.69
2023-08-29T20:47:38.883Z,43.74
2023-08-29T20:50:05.800Z,43.47
2023-08-29T20:53:54.981Z,47.68
2023-08-29T20:56:22.391Z,45.58
2023-08-29T20:58:49.730Z,45.37
2023-08-29T21:01:17.112Z,45.15
2023-08-29T21:03:44.599Z,45.23
2023-08-29T21:06:12.183Z,46.75
2023-08-29T21:08:39.620Z,47.48
2023-08-29T21:11:07.514Z,46.82
2023-08-29T21:13:35.021Z,45.89
2023-08-29T21:16:03.212Z,45.66
2023-08-29T21:18:31.407Z,45.69
2023-08-29T21:21:00.368Z,45.39
2023-08-29T21:23:28.159Z,45.58
2023-08-29T21:25:55.687Z,45.71
2023-08-29T21:28:27.097Z,45.82
2023-08-29T21:30:54.756Z,45.93
2023-08-29T21:33:23.499Z,45.94
2023-08-29T21:35:50.994Z,45.75
2023-08-29T21:38:18.445Z,45.75
2023-08-29T21:40:46.772Z,46.15
2023-08-29T21:43:24.670Z,46.75
2023-08-29T21:46:04.392Z,46.86
2023-08-29T21:48:33.402Z,46.62
2023-08-29T21:51:02.374Z,46.80
2023-08-29T21:53:29.740Z,46.65
2023-08-29T21:55:57.147Z,46.91
2023-08-29T21:58:25.086Z,46.87
2023-08-29T22:00:54.036Z,46.18
2023-08-29T22:03:23.681Z,46.01
2023-08-29T22:05:51.956Z,45.87
2023-08-29T22:08:20.422Z,45.30
2023-08-29T22:10:48.456Z,44.99
2023-08-29T22:13:15.941Z,44.67
2023-08-29T22:15:43.283Z,44.52
2023-08-29T22:18:11.118Z,44.49
2023-08-29T22:20:39.092Z,44.42
2023-08-29T22:23:06.515Z,44.53
2023-08-29T22:25:33.976Z,44.05
2023-08-29T22:28:01.420Z,44.47
2023-08-29T22:30:28.851Z,44.57
2023-08-29T22:32:56.311Z,44.70
2023-08-29T22:35:23.724Z,44.71
2023-08-29T22:37:51.208Z,45.10
2023-08-29T22:40:18.932Z,44.78
2023-08-29T22:42:46.585Z,44.79
2023-08-29T22:45:14.833Z,44.62
2023-08-29T22:47:42.500Z,44.59
2023-08-29T22:50:10.261Z,44.74
2023-08-29T22:52:40.050Z,44.80
2023-08-29T22:55:07.936Z,45.11
2023-08-29T22:57:36.241Z,45.00
2023-08-29T23:00:04.773Z,45.36
2023-08-29T23:02:32.506Z,45.71
2023-08-29T23:04:59.918Z,45.74
2023-08-29T23:07:27.324Z,46.14
2023-08-29T23:09:54.689Z,46.00
2023-08-29T23:12:22.062Z,46.85
2023-08-29T23:14:49.491Z,49.12
2023-08-29T23:17:18.102Z,49.33
2023-08-29T23:19:45.555Z,50.04
2023-08-29T23:22:13.070Z,50.14
2023-08-29T23:24:40.453Z,50.25
2023-08-29T23:27:07.811Z,50.50
2023-08-29T23:29:37.536Z,50.86
2023-08-29T23:32:06.002Z,50.62
2023-08-29T23:34:37.118Z,50.78
2023-08-29T23:37:04.732Z,50.59
2023-08-29T23:39:32.665Z,50.88
2023-08-29T23:42:01.116Z,51.16
2023-08-29T23:44:28.748Z,51.19
2023-08-29T23:46:59.046Z,51.03
2023-08-29T23:49:26.425Z,51.21
2023-08-29T23:51:53.873Z,51.06
2023-08-29T23:54:21.228Z,51.07
2023-08-29T23:56:48.558Z,50.94
2023-08-29T23:59:15.853Z,50.85
